Haima, Oman
Current Conditions -  °F | °C
As of 2:55 AM on Tuesday 21 Oct 2014 (Local Time) from KQTH Reporting Station
Clear Clear  
Wind Chill: 69°   Ceiling: Unl
Heat Index: 69°   Visibility: 6mi
Dew Point: 45°   Wind: 7mph
Humidity: 42%   Direction: 160°SSE
Pressure: 30.02"   Gusts: NA
Location:  19.97°N, 56.28°E
Report Text: KQTH 202255Z AUTO 16006KT 9999 CLR 21/07 A3002 RMK AO2 SLP139 T02050070 $
Loading
Personal Weather Stations






























Interactive Weather Map
Tropical Storm Tracking
New forecast layout! Learn more

10-Day Weather Forecast

Advertisements
Track Severe Weather on mobile